Time;durP1;ratioP1;P1;durP2;ratioP2;P2;SDS_P1;SDS_P2;PMS_P1;PMS_P2;Temp;Humidity;BMP_temperature;BMP_pressure;BME280_temperature;BME280_humidity;BME280_pressure;Samples;Min_cycle;Max_cycle;Signal;HPM_P1;HPM_P2
2021/10/14 00:01:01;;;;;;;4.07;2.27;;;7.30;85.50;;;7.73;64.19;98626.84;5045330;28;20057;-46
2021/10/14 00:03:30;;;;;;;6.03;2.87;;;7.30;85.60;;;7.68;64.08;98627.19;5044503;28;20055;-47
2021/10/14 00:05:58;;;;;;;4.07;2.67;;;7.30;85.60;;;7.67;64.37;98626.34;5045071;28;20057;-49
2021/10/14 00:08:26;;;;;;;4.30;3.10;;;7.30;85.90;;;7.68;64.17;98629.84;5044627;28;20040;-49
2021/10/14 00:10:53;;;;;;;6.00;3.07;;;7.30;85.90;;;7.69;64.24;98627.06;5045676;28;20057;-48
2021/10/14 00:13:21;;;;;;;4.10;2.67;;;7.40;85.70;;;7.67;64.70;98623.69;5045314;28;20053;-47
2021/10/14 00:15:49;;;;;;;4.27;2.70;;;7.30;85.70;;;7.65;64.61;98622.13;5045149;28;20090;-49
2021/10/14 00:18:17;;;;;;;4.50;2.43;;;7.30;85.80;;;7.62;64.74;98627.69;5045833;28;20051;-47
2021/10/14 00:20:45;;;;;;;6.73;2.80;;;7.30;85.90;;;7.59;64.29;98626.09;5045262;28;20347;-47
2021/10/14 00:23:13;;;;;;;4.27;2.20;;;7.30;86.10;;;7.54;64.60;98628.28;5046108;28;20063;-49
2021/10/14 00:25:42;;;;;;;3.07;2.10;;;7.20;86.10;;;7.52;64.60;98629.31;5044813;28;20053;-49
2021/10/14 00:28:10;;;;;;;5.33;2.20;;;7.20;86.30;;;7.48;64.64;98626.06;5046176;28;20052;-49
2021/10/14 00:30:38;;;;;;;4.03;2.70;;;7.10;86.40;;;7.47;64.91;98625.22;5046452;28;20053;-50
2021/10/14 00:33:06;;;;;;;3.90;2.47;;;7.10;86.50;;;7.46;64.65;98623.56;5044302;28;20070;-48
2021/10/14 00:35:34;;;;;;;3.97;2.23;;;7.10;86.10;;;7.44;64.61;98624.63;5043152;28;20055;-52
2021/10/14 00:38:02;;;;;;;4.00;3.40;;;7.10;86.10;;;7.40;64.30;98623.16;5045897;28;20247;-49
2021/10/14 00:40:30;;;;;;;4.47;3.00;;;7.00;86.20;;;7.39;64.62;98624.16;5043969;28;20057;-51
2021/10/14 00:42:58;;;;;;;4.00;2.70;;;7.00;86.30;;;7.38;64.65;98633.03;5045337;28;20060;-50
2021/10/14 00:45:26;;;;;;;5.47;2.57;;;7.00;86.00;;;7.37;64.50;98631.38;5045207;28;20051;-49
2021/10/14 00:47:56;;;;;;;3.60;2.63;;;7.00;86.20;;;7.36;64.50;98627.84;5045209;28;20051;-50
2021/10/14 00:50:24;;;;;;;4.03;2.33;;;7.00;86.20;;;7.35;64.65;98626.19;5045473;28;20057;-48
2021/10/14 00:52:54;;;;;;;7.03;2.60;;;7.00;86.50;;;7.36;64.89;98630.50;5044687;28;20048;-51
2021/10/14 00:55:22;;;;;;;4.47;2.60;;;7.00;86.40;;;7.38;64.58;98619.78;5044713;28;20063;-47
2021/10/14 00:57:50;;;;;;;3.30;2.33;;;7.10;86.50;;;7.37;64.83;98618.97;5042576;28;20057;-48
2021/10/14 01:00:18;;;;;;;5.07;2.30;;;7.00;86.30;;;7.38;64.65;98609.19;5043623;28;20235;-48
2021/10/14 01:02:46;;;;;;;4.07;2.07;;;7.10;86.30;;;7.39;64.50;98602.94;5045409;28;20051;-47
2021/10/14 01:05:14;;;;;;;4.80;2.10;;;7.10;86.20;;;7.38;64.83;98610.03;5048089;28;20048;-49
2021/10/14 01:07:42;;;;;;;4.77;2.50;;;7.00;86.20;;;7.37;65.03;98612.81;5048811;28;20335;-52
2021/10/14 01:10:11;;;;;;;4.30;2.50;;;7.00;86.00;;;7.32;64.34;98622.91;5049817;28;20052;-49
2021/10/14 01:12:39;;;;;;;5.00;2.40;;;6.90;86.30;;;7.28;64.62;98623.13;5048739;28;20049;-48
2021/10/14 01:15:26;;;;;;;6.27;3.27;;;6.90;86.90;;;7.26;65.17;98626.88;5046821;28;20053;-48
2021/10/14 01:17:57;;;;;;;3.70;2.50;;;6.90;87.00;;;7.28;65.12;98619.66;5047865;28;20053;-47
2021/10/14 01:20:25;;;;;;;3.40;2.07;;;7.00;87.00;;;7.29;65.09;98622.19;5048598;28;20056;-50
2021/10/14 01:22:54;;;;;;;5.30;2.20;;;7.00;86.50;;;7.32;64.74;98614.97;5047551;28;20056;-50
2021/10/14 01:25:23;;;;;;;3.13;2.20;;;7.00;86.50;;;7.32;64.96;98613.16;5048229;28;20093;-49
2021/10/14 01:27:51;;;;;;;3.57;2.33;;;7.00;86.40;;;7.32;65.11;98612.31;5047124;28;20052;-48
2021/10/14 01:30:19;;;;;;;5.80;2.93;;;7.00;86.10;;;7.32;64.96;98609.66;5049258;28;20056;-47
2021/10/14 01:32:49;;;;;;;6.17;2.60;;;7.00;86.30;;;7.30;65.20;98597.38;5048272;28;20112;-48
2021/10/14 01:35:18;;;;;;;5.13;2.47;;;7.00;86.30;;;7.28;64.69;98585.22;5050220;28;20049;-48
2021/10/14 01:37:46;;;;;;;4.00;2.50;;;6.90;86.30;;;7.22;64.83;98583.88;5049077;28;20063;-49
2021/10/14 01:40:15;;;;;;;5.13;2.50;;;6.90;86.50;;;7.21;65.16;98578.69;5049404;28;20052;-49
2021/10/14 01:42:42;;;;;;;4.73;2.40;;;6.90;86.60;;;7.20;64.82;98587.63;5048115;28;20052;-47
2021/10/14 01:45:10;;;;;;;4.10;2.23;;;6.90;86.70;;;7.19;65.17;98586.78;5048645;28;20361;-48
2021/10/14 01:47:39;;;;;;;3.73;2.23;;;6.90;86.90;;;7.21;65.24;98586.63;5048112;28;20341;-48
2021/10/14 01:50:07;;;;;;;3.40;2.07;;;6.90;86.70;;;7.21;64.73;98584.00;5047707;28;20041;-50
2021/10/14 01:52:35;;;;;;;4.53;2.43;;;6.90;86.20;;;7.20;64.82;98579.66;5048180;28;20250;-46
2021/10/14 01:55:04;;;;;;;4.40;2.53;;;6.90;86.50;;;7.18;65.16;98587.72;5047399;28;20059;-48
2021/10/14 01:57:32;;;;;;;5.23;2.20;;;6.90;86.20;;;7.15;64.78;98587.09;5048865;28;20057;-48
2021/10/14 02:00:00;;;;;;;3.83;2.50;;;6.80;86.10;;;7.11;64.59;98583.84;5048109;28;20049;-47
2021/10/14 02:02:38;;;;;;;5.97;2.73;;;6.80;86.10;;;7.08;64.82;98581.44;5049513;28;20037;-47
2021/10/14 02:05:07;;;;;;;4.87;2.60;;;6.80;86.20;;;7.05;64.75;98586.97;5047950;28;20045;-47
2021/10/14 02:07:35;;;;;;;4.07;2.73;;;6.80;86.00;;;6.99;64.99;98582.13;5048153;28;20045;-50
2021/10/14 02:10:04;;;;;;;4.77;2.57;;;6.70;86.30;;;6.95;64.76;98583.31;5048468;28;20066;-47
2021/10/14 02:12:32;;;;;;;4.17;2.30;;;6.60;86.50;;;6.92;64.70;98583.53;5049767;28;20045;-48
2021/10/14 02:14:59;;;;;;;6.37;2.97;;;6.60;86.80;;;6.89;64.82;98588.13;5047454;28;20056;-48
2021/10/14 02:17:27;;;;;;;5.17;3.00;;;6.50;87.00;;;6.88;65.21;98573.22;5047072;28;20052;-48
2021/10/14 02:19:55;;;;;;;6.27;3.33;;;6.50;87.20;;;6.88;65.68;98578.50;5047205;28;20061;-49
2021/10/14 02:22:23;;;;;;;5.60;4.17;;;6.60;87.50;;;6.90;65.81;98571.28;5047923;28;20259;-46
2021/10/14 02:24:51;;;;;;;4.97;3.30;;;6.60;87.80;;;6.92;65.55;98575.59;5048357;28;20056;-48
2021/10/14 02:27:18;;;;;;;6.27;3.77;;;6.70;88.30;;;6.96;65.99;98569.97;5047583;28;20160;-50
2021/10/14 02:29:46;;;;;;;5.73;3.00;;;6.70;88.00;;;7.02;65.88;98577.47;5049093;28;20052;-52
2021/10/14 02:32:14;;;;;;;5.57;3.37;;;6.80;87.90;;;7.05;65.68;98573.72;5046536;28;20247;-49
2021/10/14 02:34:42;;;;;;;7.30;4.20;;;6.90;87.80;;;7.11;66.15;98581.19;5046719;28;20064;-47
2021/10/14 02:37:10;;;;;;;8.73;5.53;;;6.90;87.80;;;7.15;65.59;98577.34;5044702;28;20061;-48
2021/10/14 02:39:38;;;;;;;12.97;6.53;;;7.00;87.70;;;7.18;65.67;98573.66;5047526;28;20048;-47
2021/10/14 02:42:06;;;;;;;7.77;5.03;;;7.00;87.40;;;7.20;65.54;98577.03;5048001;28;20154;-49
2021/10/14 02:44:34;;;;;;;7.43;4.03;;;7.00;87.30;;;7.22;65.81;98575.94;5047622;28;20045;-50
2021/10/14 02:47:02;;;;;;;6.73;4.67;;;7.00;87.20;;;7.25;65.61;98570.41;5045507;28;20049;-49
2021/10/14 02:49:30;;;;;;;6.60;3.93;;;7.00;87.20;;;7.26;65.45;98573.91;5046500;28;20056;-48
2021/10/14 02:51:58;;;;;;;4.67;3.10;;;7.00;87.20;;;7.24;65.64;98574.00;5046678;28;20071;-49
2021/10/14 02:54:25;;;;;;;6.27;3.80;;;7.00;87.30;;;7.25;65.67;98578.34;5048672;28;20062;-47
2021/10/14 02:56:53;;;;;;;6.97;3.33;;;7.00;87.50;;;7.25;65.48;98573.06;5048191;28;20053;-50
2021/10/14 02:59:21;;;;;;;5.87;3.50;;;7.00;87.40;;;7.25;66.06;98577.50;5046255;28;20061;-47
2021/10/14 03:01:49;;;;;;;6.83;3.27;;;7.00;87.20;;;7.21;65.60;98579.56;5045867;28;20049;-48
2021/10/14 03:04:18;;;;;;;6.10;2.60;;;6.90;87.60;;;7.18;65.88;98579.78;5046716;28;20239;-52
2021/10/14 03:06:45;;;;;;;7.20;4.90;;;6.90;88.00;;;7.15;65.40;98582.66;5046634;28;20045;-48
2021/10/14 03:09:13;;;;;;;7.90;3.40;;;6.80;88.10;;;7.14;65.88;98586.28;5047451;28;20052;-48
2021/10/14 03:11:41;;;;;;;7.23;3.30;;;6.80;88.50;;;7.12;65.66;98584.72;5046685;28;20343;-48
2021/10/14 03:14:09;;;;;;;6.63;3.43;;;6.80;88.30;;;7.13;66.00;98586.38;5046533;28;20061;-48
2021/10/14 03:16:37;;;;;;;8.23;3.17;;;6.80;88.30;;;7.12;65.70;98587.34;5047059;28;20056;-48
2021/10/14 03:19:05;;;;;;;4.63;2.83;;;6.80;88.30;;;7.12;66.07;98587.34;5047698;28;20045;-48
2021/10/14 03:21:33;;;;;;;7.07;2.93;;;6.90;88.50;;;7.10;66.01;98588.31;5046004;28;20049;-48
2021/10/14 03:24:00;;;;;;;4.23;3.00;;;6.80;88.20;;;7.09;65.88;98589.28;5047079;28;20251;-51
2021/10/14 03:26:28;;;;;;;3.70;2.73;;;6.80;88.30;;;7.07;66.10;98588.53;5046210;28;20057;-47
2021/10/14 03:28:56;;;;;;;8.13;2.90;;;6.80;88.40;;;7.03;65.94;98584.44;5044440;28;20053;-50
2021/10/14 03:31:24;;;;;;;4.87;2.73;;;6.70;88.70;;;7.02;66.13;98580.09;5047336;28;20049;-50
2021/10/14 03:33:52;;;;;;;6.87;2.70;;;6.70;88.80;;;7.04;66.16;98578.19;5044878;28;20048;-48
2021/10/14 03:36:20;;;;;;;5.63;3.80;;;6.70;88.90;;;7.05;66.00;98571.91;5044085;28;20347;-47
2021/10/14 03:38:48;;;;;;;6.50;4.57;;;6.80;88.80;;;7.09;66.00;98572.53;5045051;28;20224;-50
2021/10/14 03:41:16;;;;;;;12.63;7.07;;;6.80;88.70;;;7.08;66.02;98570.84;5047060;28;20044;-47
2021/10/14 03:43:43;;;;;;;9.50;5.83;;;6.80;88.80;;;7.10;66.40;98563.63;5047087;28;20057;-49
2021/10/14 03:46:11;;;;;;;6.23;4.60;;;6.80;88.90;;;7.11;66.38;98567.97;5046265;28;20057;-49
2021/10/14 03:48:39;;;;;;;5.87;3.77;;;6.80;88.80;;;7.10;65.90;98572.41;5046386;28;20071;-51
2021/10/14 03:51:07;;;;;;;7.97;4.33;;;6.80;88.90;;;7.07;65.91;98585.88;5046349;28;20049;-48
2021/10/14 03:53:35;;;;;;;6.00;3.43;;;6.80;89.10;;;7.08;66.40;98587.56;5044467;28;20063;-48
2021/10/14 03:56:03;;;;;;;4.90;2.80;;;6.80;89.10;;;7.08;66.05;98582.28;5045713;28;20049;-52
2021/10/14 03:58:31;;;;;;;6.30;3.67;;;6.80;89.10;;;7.07;66.49;98592.97;5045442;28;20259;-48
2021/10/14 04:00:58;;;;;;;7.23;3.17;;;6.80;89.10;;;7.06;66.03;98591.31;5045454;28;20057;-48
2021/10/14 04:03:26;;;;;;;5.10;3.10;;;6.80;89.10;;;7.05;66.05;98598.38;5046071;28;20049;-48
2021/10/14 04:05:54;;;;;;;5.87;3.67;;;6.80;89.10;;;7.07;65.97;98593.81;5043869;28;20063;-47
2021/10/14 04:08:22;;;;;;;5.67;3.20;;;6.80;89.10;;;7.07;65.92;98601.75;5045546;28;20045;-49
2021/10/14 04:10:50;;;;;;;8.93;4.13;;;6.80;88.80;;;7.11;66.39;98605.03;5043655;28;20045;-47
2021/10/14 04:13:18;;;;;;;5.57;4.13;;;6.80;88.80;;;7.10;66.58;98603.34;5045674;28;20063;-49
2021/10/14 04:15:45;;;;;;;5.43;4.00;;;6.80;89.10;;;7.08;66.31;98607.94;5045936;28;20060;-50
2021/10/14 04:18:14;;;;;;;5.87;4.50;;;6.80;88.80;;;7.07;66.22;98604.41;5043888;28;20056;-52
2021/10/14 04:20:42;;;;;;;8.47;5.00;;;6.80;89.10;;;7.07;66.07;98608.88;5047006;28;20489;-51
2021/10/14 04:23:11;;;;;;;9.83;4.33;;;6.80;89.40;;;7.08;66.63;98606.13;5044799;28;20357;-51
2021/10/14 04:25:40;;;;;;;6.80;4.87;;;6.80;89.20;;;7.11;66.72;98610.31;5046015;28;20144;-50
2021/10/14 04:28:07;;;;;;;6.23;4.07;;;6.80;89.00;;;7.06;66.38;98608.03;5045686;28;20369;-50
2021/10/14 04:30:35;;;;;;;5.37;3.53;;;6.80;89.10;;;7.08;66.10;98611.41;5046081;28;20083;-52
2021/10/14 04:33:03;;;;;;;7.60;5.30;;;6.80;89.50;;;7.09;66.35;98612.25;5045421;28;20057;-49
2021/10/14 04:35:31;;;;;;;7.57;4.20;;;6.80;89.50;;;7.10;66.70;98609.50;5044831;28;20064;-48
2021/10/14 04:37:59;;;;;;;5.47;3.07;;;6.90;89.40;;;7.13;66.68;98605.75;5043036;28;20071;-50
2021/10/14 04:40:27;;;;;;;7.83;4.03;;;6.90;89.20;;;7.15;66.69;98600.34;5045283;28;20254;-51
2021/10/14 04:42:55;;;;;;;4.30;3.07;;;6.80;89.20;;;7.17;66.79;98601.91;5044332;28;20344;-52
2021/10/14 04:45:23;;;;;;;7.07;3.13;;;6.90;89.30;;;7.20;66.14;98612.28;5044853;28;20373;-50
2021/10/14 04:47:50;;;;;;;4.40;2.60;;;6.90;89.20;;;7.22;66.74;98604.22;5042977;28;20064;-49
2021/10/14 04:50:18;;;;;;;3.30;2.40;;;7.00;89.00;;;7.24;66.58;98610.25;5047340;28;20057;-49
2021/10/14 04:52:46;;;;;;;6.90;2.60;;;7.00;88.90;;;7.27;66.61;98608.22;5044154;28;20053;-50
2021/10/14 04:55:14;;;;;;;6.53;3.10;;;7.10;89.00;;;7.30;66.90;98602.66;5045409;28;20061;-49
2021/10/14 04:57:42;;;;;;;5.57;2.80;;;7.10;88.90;;;7.33;66.80;98600.75;5045609;28;20051;-48
2021/10/14 05:00:11;;;;;;;5.83;2.80;;;7.10;88.60;;;7.35;66.54;98612.94;5046014;28;20057;-48
2021/10/14 05:02:38;;;;;;;4.87;2.80;;;7.20;88.70;;;7.35;66.76;98607.63;5046197;28;20479;-48
2021/10/14 05:05:07;;;;;;;7.03;4.03;;;7.10;88.40;;;7.35;66.71;98607.63;5045204;28;20047;-49
2021/10/14 05:07:35;;;;;;;4.03;2.23;;;7.10;88.00;;;7.37;66.24;98608.34;5045846;28;20381;-48
2021/10/14 05:10:04;;;;;;;4.43;3.07;;;7.10;88.20;;;7.39;66.36;98600.31;5045212;28;20057;-51
2021/10/14 05:12:31;;;;;;;5.03;2.13;;;7.20;88.20;;;7.41;66.37;98607.16;5044362;28;20373;-49
2021/10/14 05:14:59;;;;;;;4.33;3.10;;;7.20;88.10;;;7.44;66.47;98608.72;5044730;28;20062;-51
2021/10/14 05:17:27;;;;;;;6.07;3.50;;;7.30;87.80;;;7.46;66.54;98607.66;5045128;28;20063;-48
2021/10/14 05:19:55;;;;;;;7.20;3.50;;;7.30;87.70;;;7.47;66.22;98606.69;5045506;28;20355;-51
2021/10/14 05:22:23;;;;;;;6.50;4.00;;;7.30;87.60;;;7.50;66.31;98602.94;5043982;28;20053;-50
2021/10/14 05:24:50;;;;;;;6.33;3.70;;;7.30;87.60;;;7.48;66.30;98603.09;5044265;28;20420;-50
2021/10/14 05:27:18;;;;;;;4.43;2.97;;;7.20;87.20;;;7.50;66.04;98602.94;5044660;28;20049;-51
2021/10/14 05:29:46;;;;;;;3.97;2.73;;;7.30;87.40;;;7.51;65.94;98599.34;5044311;28;20057;-50
2021/10/14 05:32:14;;;;;;;5.97;3.50;;;7.30;87.50;;;7.51;65.80;98595.88;5043604;28;20068;-53
2021/10/14 05:34:42;;;;;;;3.67;3.00;;;7.20;87.20;;;7.49;65.81;98591.50;5045068;28;20067;-48
2021/10/14 05:37:10;;;;;;;5.07;2.47;;;7.30;87.30;;;7.52;65.95;98601.00;5044042;28;20382;-51
2021/10/14 05:39:37;;;;;;;4.20;3.30;;;7.20;87.20;;;7.52;65.66;98595.72;5045057;28;20243;-51
2021/10/14 05:42:05;;;;;;;4.77;2.63;;;7.30;87.30;;;7.51;65.90;98590.56;5045159;28;20275;-50
2021/10/14 05:44:33;;;;;;;9.07;5.13;;;7.20;87.10;;;7.49;65.73;98594.16;5044557;28;20051;-49
2021/10/14 05:47:01;;;;;;;4.47;3.03;;;7.20;87.00;;;7.52;65.98;98594.88;5043548;28;20071;-54
2021/10/14 05:49:29;;;;;;;3.30;2.30;;;7.30;86.90;;;7.49;65.80;98594.16;5044525;28;20453;-52
2021/10/14 05:51:57;;;;;;;5.77;4.07;;;7.20;86.70;;;7.46;65.38;98596.19;5048231;28;20331;-53
2021/10/14 05:54:25;;;;;;;6.40;2.63;;;7.20;86.40;;;7.44;65.88;98592.81;5047651;28;20363;-50
2021/10/14 05:56:53;;;;;;;6.70;2.40;;;7.20;86.60;;;7.44;65.40;98592.81;5048149;28;20063;-50
2021/10/14 05:59:20;;;;;;;3.93;2.30;;;7.20;86.50;;;7.44;65.67;98590.16;5047578;28;20454;-49
2021/10/14 06:01:48;;;;;;;4.20;3.03;;;7.20;86.20;;;7.42;65.24;98586.81;5049306;28;20250;-47
2021/10/14 06:04:16;;;;;;;6.57;3.27;;;7.20;86.20;;;7.41;65.44;98590.44;5047013;28;20055;-48
2021/10/14 06:06:44;;;;;;;10.87;6.37;;;7.20;86.10;;;7.41;65.21;98585.97;5046577;28;20051;-47
2021/10/14 06:09:12;;;;;;;9.47;5.63;;;7.20;86.10;;;7.43;65.97;98593.81;5045874;28;20045;-45
2021/10/14 06:11:40;;;;;;;6.70;3.30;;;7.30;85.90;;;7.43;65.69;98601.75;5047556;28;20075;-45
2021/10/14 06:14:08;;;;;;;5.97;4.07;;;7.30;85.60;;;7.45;65.46;98603.31;5049072;28;20055;-46
2021/10/14 06:16:36;;;;;;;5.47;2.97;;;7.30;85.60;;;7.48;65.74;98616.34;5048167;28;20081;-50
2021/10/14 06:19:04;;;;;;;4.43;2.97;;;7.30;85.50;;;7.51;65.64;98606.47;5047074;28;20048;-48
2021/10/14 06:21:31;;;;;;;4.23;2.53;;;7.40;85.30;;;7.55;65.79;98603.44;5048070;28;20061;-48
2021/10/14 06:23:59;;;;;;;4.93;3.30;;;7.40;85.50;;;7.58;65.79;98608.50;5047769;28;20052;-49
2021/10/14 06:26:28;;;;;;;3.47;2.97;;;7.50;85.80;;;7.59;65.70;98604.88;5046196;28;20067;-48
2021/10/14 06:28:55;;;;;;;6.23;3.20;;;7.40;85.60;;;7.61;65.65;98602.97;5047252;28;20045;-48
2021/10/14 06:31:23;;;;;;;5.00;3.50;;;7.40;85.90;;;7.65;65.79;98600.91;5047275;28;20061;-45
2021/10/14 06:33:51;;;;;;;5.53;3.00;;;7.50;86.20;;;7.69;65.82;98600.56;5047300;28;20065;-46
2021/10/14 06:36:19;;;;;;;4.83;2.90;;;7.50;86.10;;;7.72;65.78;98596.00;5047497;28;20047;-47
2021/10/14 06:38:47;;;;;;;4.43;2.83;;;7.50;86.00;;;7.73;65.82;98598.50;5047398;28;20057;-47
2021/10/14 06:41:15;;;;;;;16.03;8.03;;;7.60;85.80;;;7.75;65.65;98601.88;5047711;28;20059;-46
2021/10/14 06:43:43;;;;;;;18.97;8.67;;;7.50;85.90;;;7.76;65.49;98587.69;5047545;28;20052;-45
2021/10/14 06:46:11;;;;;;;17.37;9.13;;;7.60;85.80;;;7.78;65.71;98596.34;5046574;28;20057;-45
2021/10/14 06:48:39;;;;;;;10.97;5.77;;;7.60;86.00;;;7.82;65.48;98594.31;5046677;28;20355;-45
2021/10/14 06:51:07;;;;;;;8.90;4.10;;;7.70;85.70;;;7.83;65.38;98591.53;5047579;28;20049;-50
2021/10/14 06:53:35;;;;;;;5.23;2.90;;;7.60;85.40;;;7.85;65.48;98594.91;5046559;28;20060;-45
2021/10/14 06:56:03;;;;;;;7.93;2.93;;;7.70;85.30;;;7.89;65.62;98596.34;5047474;28;20331;-50
2021/10/14 06:58:31;;;;;;;7.33;3.30;;;7.70;85.30;;;7.96;65.47;98603.81;5045748;28;20072;-47
2021/10/14 07:00:58;;;;;;;13.10;4.23;;;7.80;85.40;;;8.01;65.70;98607.81;5048668;28;20057;-44
2021/10/14 07:03:27;;;;;;;7.77;2.97;;;7.90;85.30;;;8.05;65.76;98608.41;5046669;28;20049;-45
2021/10/14 07:05:54;;;;;;;4.33;2.90;;;8.00;85.30;;;8.09;65.28;98615.97;5047025;28;20211;-44
2021/10/14 07:08:22;;;;;;;4.53;3.10;;;8.00;85.10;;;8.12;65.61;98617.53;5047128;28;20063;-47
2021/10/14 07:10:50;;;;;;;4.83;2.90;;;8.00;85.20;;;8.17;65.57;98614.53;5044332;28;20065;-45
2021/10/14 07:13:19;;;;;;;8.00;4.17;;;8.10;85.20;;;8.21;65.57;98621.28;5047784;28;20243;-48
2021/10/14 07:15:47;;;;;;;8.43;4.47;;;8.10;85.30;;;8.25;65.61;98620.91;5044616;28;20056;-48
2021/10/14 07:18:15;;;;;;;11.80;3.80;;;8.20;85.40;;;8.31;65.61;98616.91;5046565;28;20288;-47
2021/10/14 07:20:44;;;;;;;5.87;3.13;;;8.30;85.70;;;8.37;65.78;98627.03;5046878;28;20065;-47
2021/10/14 07:23:13;;;;;;;6.77;3.80;;;8.30;85.60;;;8.44;65.62;98630.94;5046315;28;20068;-47
2021/10/14 07:25:44;;;;;;;5.20;3.00;;;8.40;85.30;;;8.50;65.60;98621.63;5046105;28;20063;-48
2021/10/14 07:28:12;;;;;;;4.87;2.83;;;8.50;85.50;;;8.57;65.73;98633.44;5045319;28;20053;-49
2021/10/14 07:30:41;;;;;;;5.60;2.60;;;8.60;85.20;;;8.64;65.63;98631.13;5047255;28;20052;-50
2021/10/14 07:33:09;;;;;;;6.33;3.23;;;8.60;85.00;;;8.69;65.64;98628.94;5045513;28;20469;-49
2021/10/14 07:35:41;;;;;;;6.77;2.93;;;8.70;85.20;;;8.73;65.78;98633.03;5045147;28;20053;-47
2021/10/14 07:38:11;;;;;;;5.47;3.07;;;8.70;85.10;;;8.76;65.62;98627.47;5044906;28;20339;-49
2021/10/14 07:40:42;;;;;;;9.67;3.77;;;8.70;85.20;;;8.82;65.85;98631.41;5046358;28;20075;-45
2021/10/14 07:43:13;;;;;;;6.50;3.20;;;8.80;85.70;;;8.83;65.69;98630.47;5047227;28;20355;-50
2021/10/14 07:45:44;;;;;;;9.73;3.90;;;8.80;86.30;;;8.84;65.79;98622.38;5046400;28;20361;-51
2021/10/14 07:48:13;;;;;;;10.43;3.20;;;8.80;86.80;;;8.86;65.82;98628.41;5046129;28;20057;-48
2021/10/14 07:50:41;;;;;;;10.87;4.77;;;8.80;86.90;;;8.87;66.05;98631.91;5044932;28;20061;-48
2021/10/14 07:53:15;;;;;;;6.23;3.83;;;8.80;87.20;;;8.91;65.97;98628.00;5043277;28;20057;-48
2021/10/14 07:55:46;;;;;;;13.07;4.27;;;8.90;87.30;;;8.96;66.07;98632.97;5046687;28;20400;-47
2021/10/14 07:58:14;;;;;;;4.90;2.50;;;8.90;87.40;;;9.00;65.62;98632.56;5046186;28;20061;-49
2021/10/14 08:00:42;;;;;;;4.67;2.30;;;9.00;85.70;;;9.02;65.14;98635.94;5044575;28;20250;-46
2021/10/14 08:03:11;;;;;;;3.60;2.20;;;9.00;84.60;;;9.07;65.22;98630.22;5046345;28;20084;-50
2021/10/14 08:05:40;;;;;;;4.50;1.97;;;9.10;84.60;;;9.12;65.13;98636.03;5051289;28;20343;-51
2021/10/14 08:08:08;;;;;;;5.27;2.43;;;9.10;83.70;;;9.20;64.98;98635.38;5059608;28;20051;-48
2021/10/14 08:10:36;;;;;;;6.03;2.53;;;9.20;83.60;;;9.27;64.70;98641.88;5060784;28;20053;-48
2021/10/14 08:13:04;;;;;;;5.47;2.57;;;9.30;83.40;;;9.33;64.81;98636.03;5059752;28;20036;-48
2021/10/14 08:15:32;;;;;;;3.67;2.30;;;9.40;83.50;;;9.35;64.27;98638.56;5059457;28;20063;-49
2021/10/14 08:18:00;;;;;;;2.57;2.03;;;9.40;82.50;;;9.35;64.13;98630.59;5058510;28;20088;-48
2021/10/14 08:20:28;;;;;;;2.67;1.83;;;9.40;81.30;;;9.43;64.42;98633.44;5060462;28;20247;-47
2021/10/14 08:22:56;;;;;;;4.00;2.67;;;9.40;82.60;;;9.48;64.42;98633.91;5060628;28;20119;-49
2021/10/14 08:25:24;;;;;;;3.93;2.37;;;9.50;81.80;;;9.55;64.36;98631.56;5049646;28;20049;-48
2021/10/14 08:27:52;;;;;;;3.30;2.30;;;9.60;82.50;;;9.59;63.83;98628.50;5052851;28;20367;-50
2021/10/14 08:30:20;;;;;;;3.67;1.80;;;9.70;81.10;;;9.58;63.34;98640.13;5059298;28;20066;-50
2021/10/14 08:32:52;;;;;;;3.70;2.23;;;9.70;80.80;;;9.61;63.24;98628.38;5061253;28;20343;-47
2021/10/14 08:35:20;;;;;;;5.70;2.20;;;9.70;80.30;;;9.69;63.30;98628.56;5058473;28;20052;-47
2021/10/14 08:37:49;;;;;;;4.07;2.00;;;9.80;81.00;;;9.76;63.13;98634.22;5043101;28;20239;-49
2021/10/14 08:40:20;;;;;;;5.77;2.37;;;9.90;80.60;;;9.82;63.26;98642.50;5059099;28;20055;-47
2021/10/14 08:42:48;;;;;;;2.57;1.90;;;9.90;80.30;;;9.88;63.32;98634.97;5060706;28;20061;-50
2021/10/14 08:45:18;;;;;;;4.60;2.60;;;10.00;80.20;;;9.95;62.95;98642.28;5060870;28;20053;-48
2021/10/14 08:47:46;;;;;;;5.33;2.47;;;10.10;80.40;;;10.00;62.81;98645.41;5060963;28;20049;-50
2021/10/14 08:50:15;;;;;;;3.83;2.37;;;10.10;79.70;;;10.00;62.38;98649.84;5059518;28;20048;-50
2021/10/14 08:52:43;;;;;;;6.45;1.90;;;10.10;79.00;;;10.09;63.04;98653.53;5060010;28;20079;-49
2021/10/14 08:55:12;;;;;;;3.43;2.30;;;10.10;80.10;;;10.16;63.21;98644.91;5060688;28;20061;-48
2021/10/14 08:57:39;;;;;;;5.43;2.17;;;10.30;80.10;;;10.23;62.79;98645.19;5060574;28;20060;-49
2021/10/14 09:00:08;;;;;;;3.93;2.50;;;10.40;80.10;;;10.26;62.70;98644.94;5060581;28;20049;-48
2021/10/14 09:02:36;;;;;;;4.33;2.40;;;10.30;79.80;;;10.32;63.20;98643.59;5060550;28;20061;-50
2021/10/14 09:05:08;;;;;;;4.35;2.28;;;10.40;80.20;;;10.35;63.00;98648.63;5056243;28;20063;-47
2021/10/14 09:07:36;;;;;;;5.28;2.88;;;10.40;79.30;;;10.36;62.75;98645.00;5054090;28;20053;-47
2021/10/14 09:10:12;;;;;;;5.50;2.93;;;10.50;80.60;;;10.40;63.01;98643.75;5059952;28;20071;-50
2021/10/14 09:12:46;;;;;;;4.15;2.80;;;10.50;80.20;;;10.37;62.98;98636.00;5060299;28;20053;-48
2021/10/14 09:15:18;;;;;;;3.73;3.10;;;10.50;80.90;;;10.43;62.98;98633.66;5058260;28;20063;-49
2021/10/14 09:17:53;;;;;;;3.92;2.80;;;10.50;81.30;;;10.50;63.24;98631.28;5058634;28;20057;-47
2021/10/14 09:20:20;;;;;;;5.05;3.33;;;10.50;82.00;;;10.54;63.48;98623.88;5055446;28;20320;-47
2021/10/14 09:23:12;;;;;;;7.33;3.47;;;10.60;82.10;;;10.59;63.93;98622.50;5059977;28;20052;-48
2021/10/14 09:25:46;;;;;;;6.90;4.03;;;10.70;82.40;;;10.63;63.55;98621.22;5062708;28;20382;-48
2021/10/14 09:28:22;;;;;;;;;;;10.70;82.50;;;10.60;63.64;98620.66;5064913;28;20074;-47
2021/10/14 09:31:04;;;;;;;7.53;4.43;;;10.60;83.30;;;10.65;63.87;98613.09;5064205;28;19917;-47
2021/10/14 09:33:42;;;;;;;5.43;3.57;;;10.60;84.10;;;10.53;64.61;98615.06;5063523;28;20048;-48
2021/10/14 09:36:27;;;;;;;7.47;3.93;;;10.50;84.40;;;10.56;64.28;98608.59;5064183;28;20048;-47
2021/10/14 09:39:03;;;;;;;6.43;4.17;;;10.60;84.60;;;10.58;64.19;98612.81;5052500;28;20049;-49
2021/10/14 09:41:41;;;;;;;5.77;3.20;;;10.50;84.20;;;10.52;63.99;98602.72;5063664;28;20048;-47
2021/10/14 09:44:20;;;;;;;6.57;3.07;;;10.50;83.50;;;10.50;64.05;98611.81;5055761;28;20052;-46
2021/10/14 09:46:50;;;;;;;6.82;3.33;;;10.50;83.40;;;10.50;63.76;98593.19;5051904;28;20059;-47
2021/10/14 09:49:32;;;;;;;7.17;3.27;;;10.50;82.90;;;10.40;62.72;98603.81;5052291;28;20376;-48
2021/10/14 09:52:01;;;;;;;5.40;2.87;;;10.40;80.70;;;10.34;63.21;98599.88;5049824;28;20055;-47
2021/10/14 09:54:30;;;;;;;5.60;3.93;;;10.30;81.80;;;10.32;63.10;98604.50;5046980;28;20059;-47
2021/10/14 09:56:59;;;;;;;4.57;2.90;;;10.30;81.10;;;10.38;62.87;98598.63;5047090;28;20057;-48
2021/10/14 09:59:26;;;;;;;4.13;2.83;;;10.40;81.20;;;10.40;63.04;98596.66;5048291;28;20051;-48
2021/10/14 10:02:02;;;;;;;8.30;3.42;;;10.50;81.60;;;10.47;63.33;98593.44;5047080;28;20055;-51
2021/10/14 10:04:31;;;;;;;6.87;2.93;;;10.50;81.30;;;10.46;63.22;98607.75;5047261;28;20320;-46
2021/10/14 10:07:04;;;;;;;5.15;2.80;;;10.60;81.30;;;10.46;62.95;98605.91;5041113;28;20053;-46
2021/10/14 10:09:40;;;;;;;6.75;3.05;;;10.50;80.60;;;10.53;63.30;98603.56;5047774;28;20044;-47
2021/10/14 10:12:10;;;;;;;4.20;2.70;;;10.60;81.00;;;10.60;63.26;98604.69;5046731;28;20048;-48
2021/10/14 10:14:39;;;;;;;5.50;2.75;;;10.70;81.20;;;10.54;62.56;98595.41;5047570;28;20053;-47
2021/10/14 10:17:11;;;;;;;4.00;2.57;;;10.70;78.90;;;10.62;62.50;98600.06;5047497;28;20052;-47
2021/10/14 10:19:49;;;;;;;4.70;2.60;;;10.80;79.20;;;10.78;62.52;98597.72;5049009;28;20059;-47
2021/10/14 10:22:35;;;;;;;5.47;2.88;;;10.90;79.10;;;10.86;61.90;98590.81;5047782;28;20359;-50
2021/10/14 10:25:24;;;;;;;3.63;2.63;;;11.10;78.50;;;10.92;61.82;98596.44;5046738;28;20057;-50
2021/10/14 10:27:54;;;;;;;7.60;2.38;;;11.20;78.10;;;10.91;61.75;98594.75;5047548;28;20271;-50
2021/10/14 10:30:37;;;;;;;5.97;3.53;;;11.20;78.20;;;10.97;59.93;98601.34;5046557;28;20363;-48
2021/10/14 10:33:08;;;;;;;4.00;2.63;;;11.30;75.70;;;11.04;61.28;98597.16;5046351;28;20057;-48
2021/10/14 10:35:45;;;;;;;4.50;2.90;;;11.30;76.80;;;11.14;61.61;98602.47;5046289;28;20370;-48
2021/10/14 10:38:27;;;;;;;6.45;3.20;;;11.30;77.50;;;11.16;62.01;98603.16;5046270;28;20055;-50